createdAt,value
2022-12-15T00:02:16.084Z,100470.03
2022-12-15T00:05:01.456Z,100466.47
2022-12-15T00:07:46.771Z,100462.00
2022-12-15T00:10:31.866Z,100468.84
2022-12-15T00:13:17.195Z,100477.47
2022-12-15T00:16:05.396Z,100483.84
2022-12-15T00:18:50.690Z,100484.91
2022-12-15T00:21:35.981Z,100475.63
2022-12-15T00:24:21.353Z,100487.97
2022-12-15T00:27:06.543Z,100485.66
2022-12-15T00:29:51.828Z,100484.84
2022-12-15T00:32:36.856Z,100486.00
2022-12-15T00:35:22.091Z,100482.75
2022-12-15T00:38:08.727Z,100491.84
2022-12-15T00:40:36.193Z,100495.63
2022-12-15T00:43:03.093Z,100495.44
2022-12-15T00:45:48.392Z,100495.75
2022-12-15T00:48:15.505Z,100498.16
2022-12-15T00:50:52.918Z,100497.88
2022-12-15T00:53:39.663Z,100496.50
2022-12-15T00:56:25.589Z,100507.94
2022-12-15T00:59:12.532Z,100513.28
2022-12-15T01:01:58.829Z,100503.34
2022-12-15T01:04:44.830Z,100500.28
2022-12-15T01:07:30.475Z,100509.25
2022-12-15T01:10:17.258Z,100505.94
2022-12-15T01:13:03.284Z,100511.94
2022-12-15T01:15:48.854Z,100508.63
2022-12-15T01:18:35.875Z,100504.34
2022-12-15T01:21:05.970Z,100512.53
2022-12-15T01:23:33.569Z,100514.53
2022-12-15T01:26:00.891Z,100511.28
2022-12-15T01:28:27.913Z,100513.47
2022-12-15T01:30:54.623Z,100519.16
2022-12-15T01:33:21.924Z,100521.09
2022-12-15T01:36:14.267Z,100527.19
2022-12-15T01:38:41.002Z,100525.19
2022-12-15T01:41:10.499Z,100527.69
2022-12-15T01:43:39.490Z,100515.59
2022-12-15T01:46:07.411Z,100535.34
2022-12-15T01:48:38.351Z,100536.72
2022-12-15T01:51:20.041Z,100533.34
2022-12-15T01:54:19.061Z,100530.97
2022-12-15T01:56:49.439Z,100538.78
2022-12-15T01:59:27.369Z,100533.53
2022-12-15T02:01:54.186Z,100532.13
2022-12-15T02:04:22.643Z,100533.59
2022-12-15T02:06:50.605Z,100542.16
2022-12-15T02:09:18.618Z,100540.94
2022-12-15T02:11:45.192Z,100546.91
2022-12-15T02:14:20.277Z,100541.31
2022-12-15T02:17:06.633Z,100543.78
2022-12-15T02:20:12.437Z,100552.63
2022-12-15T02:22:51.111Z,100557.91
2022-12-15T02:25:52.743Z,100564.81
2022-12-15T02:28:42.953Z,100559.06
2022-12-15T02:31:38.706Z,100558.88
2022-12-15T02:34:13.919Z,100553.41
2022-12-15T02:36:44.812Z,100563.31
2022-12-15T02:39:12.545Z,100567.41
2022-12-15T02:41:45.234Z,100573.97
2022-12-15T02:44:15.877Z,100585.38
2022-12-15T02:46:42.377Z,100576.41
2022-12-15T02:49:27.817Z,100575.94
2022-12-15T02:52:12.644Z,100569.94
2022-12-15T02:54:58.490Z,100574.31
2022-12-15T02:57:30.965Z,100569.44
2022-12-15T03:00:05.564Z,100575.88
2022-12-15T03:02:37.558Z,100567.91
2022-12-15T03:05:05.024Z,100586.38
2022-12-15T03:07:31.620Z,100570.34
2022-12-15T03:10:00.966Z,100585.19
2022-12-15T03:12:27.698Z,100581.69
2022-12-15T03:14:54.755Z,100584.22
2022-12-15T03:17:21.352Z,100586.28
2022-12-15T03:19:49.756Z,100585.47
2022-12-15T03:22:17.013Z,100578.88
2022-12-15T03:24:43.584Z,100584.19
2022-12-15T03:27:10.236Z,100591.75
2022-12-15T03:29:36.905Z,100595.25
2022-12-15T03:32:03.764Z,100586.56
2022-12-15T03:34:31.021Z,100598.41
2022-12-15T03:36:58.120Z,100597.28
2022-12-15T03:39:24.734Z,100602.78
2022-12-15T03:41:51.415Z,100599.38
2022-12-15T03:44:18.044Z,100597.47
2022-12-15T03:46:44.608Z,100584.59
2022-12-15T03:49:11.317Z,100584.84
2022-12-15T03:51:37.901Z,100587.78
2022-12-15T03:54:04.575Z,100592.47
2022-12-15T03:56:31.357Z,100590.75
2022-12-15T03:58:59.012Z,100595.75
2022-12-15T04:01:31.157Z,100603.41
2022-12-15T04:04:00.989Z,100597.31
2022-12-15T04:06:29.613Z,100599.28
2022-12-15T04:08:56.550Z,100591.63
2022-12-15T04:11:23.175Z,100596.56
2022-12-15T04:13:49.719Z,100587.13
2022-12-15T04:16:20.129Z,100588.63
2022-12-15T04:19:07.969Z,100590.41
2022-12-15T04:21:34.579Z,100595.34
2022-12-15T04:24:19.607Z,100588.84
2022-12-15T04:27:05.227Z,100592.97
2022-12-15T04:29:50.404Z,100595.19
2022-12-15T04:32:35.772Z,100593.38
2022-12-15T04:35:20.883Z,100595.00
2022-12-15T04:38:06.281Z,100599.91
2022-12-15T04:40:51.434Z,100594.88
2022-12-15T04:43:36.685Z,100599.75
2022-12-15T04:46:22.031Z,100604.53
2022-12-15T04:49:07.217Z,100606.13
2022-12-15T04:51:52.625Z,100602.97
2022-12-15T04:54:37.772Z,100594.88
2022-12-15T04:57:22.968Z,100597.41
2022-12-15T05:00:08.331Z,100606.38
2022-12-15T05:02:53.679Z,100607.09
2022-12-15T05:05:38.982Z,100607.59
2022-12-15T05:08:24.019Z,100608.75
2022-12-15T05:11:09.509Z,100617.56
2022-12-15T05:13:54.931Z,100618.88
2022-12-15T05:16:40.334Z,100627.66
2022-12-15T05:19:25.942Z,100622.84
2022-12-15T05:22:11.235Z,100622.91
2022-12-15T05:24:57.036Z,100625.72
2022-12-15T05:27:42.777Z,100628.34
2022-12-15T05:30:28.757Z,100627.75
2022-12-15T05:32:55.498Z,100632.25
2022-12-15T05:35:22.049Z,100627.50
2022-12-15T05:37:49.730Z,100624.47
2022-12-15T05:40:16.371Z,100623.28
2022-12-15T05:42:42.910Z,100626.38
2022-12-15T05:45:11.469Z,100616.97
2022-12-15T05:47:38.123Z,100622.72
2022-12-15T05:50:05.081Z,100628.72
2022-12-15T05:52:31.810Z,100637.75
2022-12-15T05:54:58.376Z,100648.00
2022-12-15T05:57:24.955Z,100640.72
2022-12-15T05:59:51.530Z,100646.63
2022-12-15T06:02:18.310Z,100645.56
2022-12-15T06:04:44.972Z,100645.06
2022-12-15T06:07:11.708Z,100647.03
2022-12-15T06:09:38.268Z,100641.94
2022-12-15T06:12:05.168Z,100650.75
2022-12-15T06:14:31.734Z,100648.22
2022-12-15T06:16:59.965Z,100646.00
2022-12-15T06:19:26.762Z,100646.00
2022-12-15T06:21:53.431Z,100640.59
2022-12-15T06:24:19.998Z,100654.97
2022-12-15T06:26:49.964Z,100650.94
2022-12-15T06:29:16.934Z,100655.50
2022-12-15T06:31:43.890Z,100647.28
2022-12-15T06:34:13.899Z,100649.91
2022-12-15T06:36:41.464Z,100647.09
2022-12-15T06:39:11.612Z,100652.97
2022-12-15T06:41:38.505Z,100658.25
2022-12-15T06:44:06.147Z,100664.03
2022-12-15T06:46:34.824Z,100663.34
2022-12-15T06:49:01.604Z,100669.72
2022-12-15T06:51:28.759Z,100655.72
2022-12-15T06:53:56.113Z,100655.72
2022-12-15T06:56:33.188Z,100660.00
2022-12-15T06:59:00.669Z,100667.56
2022-12-15T07:01:27.849Z,100669.41
2022-12-15T07:03:55.450Z,100662.75
2022-12-15T07:06:22.778Z,100668.16
2022-12-15T07:08:58.772Z,100672.19
2022-12-15T07:11:25.338Z,100662.09
2022-12-15T07:13:53.082Z,100671.16
2022-12-15T07:16:21.616Z,100671.16
2022-12-15T07:18:48.696Z,100678.78
2022-12-15T07:21:15.593Z,100679.81
2022-12-15T07:23:58.512Z,100684.06
2022-12-15T07:26:26.216Z,100683.41
2022-12-15T07:28:53.536Z,100684.81
2022-12-15T07:31:20.958Z,100687.53
2022-12-15T07:33:48.371Z,100693.13
2022-12-15T07:36:15.901Z,100685.34
2022-12-15T07:38:42.781Z,100686.25
2022-12-15T07:41:10.489Z,100677.72
2022-12-15T07:43:38.113Z,100683.09
2022-12-15T07:46:05.655Z,100687.91
2022-12-15T07:48:33.414Z,100682.00
2022-12-15T07:51:18.900Z,100684.47
2022-12-15T07:53:47.391Z,100688.56
2022-12-15T07:56:14.054Z,100698.88
2022-12-15T07:58:40.898Z,100699.84
2022-12-15T08:01:12.296Z,100709.03
2022-12-15T08:03:40.244Z,100701.50
2022-12-15T08:06:10.189Z,100707.09
2022-12-15T08:08:37.710Z,100715.13
2022-12-15T08:11:13.560Z,100713.91
2022-12-15T08:16:30.128Z,100714.81
2022-12-15T08:18:59.394Z,100719.75
2022-12-15T08:21:26.037Z,100717.81
2022-12-15T08:23:52.691Z,100718.47
2022-12-15T08:26:22.629Z,100719.28
2022-12-15T08:28:54.023Z,100716.84
2022-12-15T08:31:22.660Z,100725.16
2022-12-15T08:33:50.062Z,100720.63
2022-12-15T08:36:18.683Z,100713.75
2022-12-15T08:38:46.348Z,100724.34
2022-12-15T08:41:12.836Z,100727.78
2022-12-15T08:43:45.787Z,100732.00
2022-12-15T08:46:15.659Z,100726.69
2022-12-15T08:48:42.405Z,100720.19
2022-12-15T08:51:09.773Z,100725.66
2022-12-15T08:53:36.868Z,100725.97
2022-12-15T08:56:08.977Z,100726.94
2022-12-15T08:58:35.985Z,100733.09
2022-12-15T09:01:05.115Z,100741.28
2022-12-15T09:03:33.891Z,100743.44
2022-12-15T09:06:05.635Z,100746.16
2022-12-15T09:08:32.893Z,100742.34
2022-12-15T09:11:01.035Z,100757.09
2022-12-15T09:13:30.188Z,100750.91
2022-12-15T09:16:11.421Z,100752.72
2022-12-15T09:18:38.801Z,100761.13
2022-12-15T09:21:07.404Z,100767.09
2022-12-15T09:23:35.780Z,100770.78
2022-12-15T09:26:08.994Z,100768.38
2022-12-15T09:28:37.197Z,100783.50
2022-12-15T09:31:06.928Z,100785.97
2022-12-15T09:33:34.454Z,100786.63
2022-12-15T09:36:01.567Z,100790.91
2022-12-15T09:38:28.168Z,100788.28
2022-12-15T09:40:54.858Z,100799.13
2022-12-15T09:43:46.520Z,100796.31
2022-12-15T09:46:27.553Z,100811.41
2022-12-15T09:49:01.947Z,100815.84
2022-12-15T09:51:34.908Z,100812.13
2022-12-15T09:54:02.372Z,100808.28
2022-12-15T09:56:57.699Z,100809.59
2022-12-15T09:59:38.220Z,100808.41
2022-12-15T10:02:18.480Z,100803.94
2022-12-15T10:05:17.017Z,100807.84
2022-12-15T10:07:46.489Z,100801.75
2022-12-15T10:10:27.911Z,100800.84
2022-12-15T10:13:02.553Z,100799.53
2022-12-15T10:15:35.255Z,100793.25
2022-12-15T10:18:07.562Z,100791.16
2022-12-15T10:20:34.375Z,100788.03
2022-12-15T10:23:09.764Z,100794.03
2022-12-15T10:25:36.580Z,100793.25
2022-12-15T10:28:51.218Z,100791.84
2022-12-15T10:31:25.826Z,100803.31
2022-12-15T10:34:07.473Z,100797.38
2022-12-15T10:36:34.132Z,100792.06
2022-12-15T10:39:00.795Z,100799.78
2022-12-15T10:41:32.276Z,100800.84
2022-12-15T10:43:58.921Z,100790.44
2022-12-15T10:46:28.259Z,100796.66
2022-12-15T10:49:21.376Z,100793.63
2022-12-15T10:52:04.002Z,100793.13
2022-12-15T10:54:36.672Z,100795.88
2022-12-15T10:57:31.647Z,100787.91
2022-12-15T11:00:13.855Z,100790.88
2022-12-15T11:02:42.453Z,100791.47
2022-12-15T11:05:16.012Z,100790.44
2022-12-15T11:07:46.607Z,100791.47
2022-12-15T11:10:53.367Z,100788.59
2022-12-15T11:13:22.405Z,100792.34
2022-12-15T11:15:55.122Z,100790.59
2022-12-15T11:18:58.824Z,100782.13
2022-12-15T11:21:30.407Z,100779.94
2022-12-15T11:24:21.765Z,100769.59
2022-12-15T11:27:18.037Z,100770.00
2022-12-15T11:30:04.089Z,100766.28
2022-12-15T11:32:34.948Z,100775.66
2022-12-15T11:35:01.638Z,100771.03
2022-12-15T11:37:56.071Z,100777.03
2022-12-15T11:40:41.181Z,100789.31
2022-12-15T11:43:27.373Z,100782.31
2022-12-15T11:46:16.035Z,100786.56
2022-12-15T11:48:58.916Z,100785.84
2022-12-15T11:51:41.224Z,100784.00
2022-12-15T11:54:10.969Z,100785.22
2022-12-15T11:56:40.813Z,100785.03
2022-12-15T11:59:49.098Z,100784.34
2022-12-15T12:02:43.258Z,100779.16
2022-12-15T12:05:29.931Z,100775.78
2022-12-15T12:08:17.801Z,100779.06
2022-12-15T12:11:09.312Z,100778.56
2022-12-15T12:13:56.198Z,100779.59
2022-12-15T12:16:46.816Z,100773.22
2022-12-15T12:19:32.216Z,100767.16
2022-12-15T12:22:11.855Z,100768.44
2022-12-15T12:24:53.055Z,100758.84
2022-12-15T12:27:41.639Z,100756.41
2022-12-15T12:30:21.188Z,100747.78
2022-12-15T12:33:03.962Z,100748.34
2022-12-15T12:35:46.714Z,100752.56
2022-12-15T12:38:20.361Z,100751.28
2022-12-15T12:40:56.078Z,100752.09
2022-12-15T12:43:43.504Z,100746.38
2022-12-15T12:46:19.550Z,100745.31
2022-12-15T12:48:51.250Z,100747.88
2022-12-15T12:51:31.363Z,100744.00
2022-12-15T12:53:59.903Z,100739.09
2022-12-15T12:56:35.794Z,100735.78
2022-12-15T12:59:08.804Z,100733.66
2022-12-15T13:01:38.270Z,100734.25
2022-12-15T13:04:14.044Z,100716.38
2022-12-15T13:06:40.775Z,100721.63
2022-12-15T13:09:17.355Z,100721.91
2022-12-15T13:11:47.085Z,100729.50
2022-12-15T13:14:25.618Z,100733.16
2022-12-15T13:20:19.876Z,100714.41
2022-12-15T13:22:46.794Z,100708.56
2022-12-15T13:25:37.061Z,100696.38
2022-12-15T13:28:39.108Z,100694.53
2022-12-15T13:31:22.312Z,100700.34
2022-12-15T13:34:00.938Z,100691.59
2022-12-15T13:36:36.919Z,100694.66
2022-12-15T13:39:38.217Z,100690.94
2022-12-15T13:42:32.701Z,100688.97
2022-12-15T13:44:57.403Z,100692.16
2022-12-15T13:47:28.294Z,100684.38
2022-12-15T13:50:27.377Z,100685.53
2022-12-15T13:53:18.300Z,100681.13
2022-12-15T13:56:00.460Z,100674.47
2022-12-15T13:58:30.442Z,100671.66
2022-12-15T14:00:58.121Z,100670.00
2022-12-15T14:03:26.268Z,100683.44
2022-12-15T14:05:56.102Z,100678.91
2022-12-15T14:08:25.236Z,100679.16
2022-12-15T14:10:54.217Z,100682.41
2022-12-15T14:13:25.402Z,100681.59
2022-12-15T14:15:56.043Z,100682.19
2022-12-15T14:18:22.626Z,100679.56
2022-12-15T14:20:49.208Z,100677.31
2022-12-15T14:23:26.433Z,100674.13
2022-12-15T14:26:03.433Z,100664.66
2022-12-15T14:28:33.081Z,100662.84
2022-12-15T14:31:05.077Z,100660.16
2022-12-15T14:33:38.733Z,100661.72
2022-12-15T14:36:08.793Z,100665.72
2022-12-15T14:38:44.172Z,100662.50
2022-12-15T14:41:26.991Z,100662.44
2022-12-15T14:44:37.203Z,100651.25
2022-12-15T14:47:08.577Z,100644.81
2022-12-15T14:49:41.305Z,100649.09
2022-12-15T14:52:23.295Z,100652.97
2022-12-15T14:54:57.583Z,100653.91
2022-12-15T14:57:44.805Z,100659.28
2022-12-15T15:00:31.249Z,100652.50
2022-12-15T15:03:15.406Z,100723.34
2022-12-15T15:06:01.873Z,100653.22
2022-12-15T15:08:42.609Z,100665.84
2022-12-15T15:11:25.021Z,100664.22
2022-12-15T15:13:56.243Z,100662.22
2022-12-15T15:16:23.447Z,100655.91
2022-12-15T15:18:52.268Z,100657.06
2022-12-15T15:21:23.081Z,100660.88
2022-12-15T15:23:58.767Z,100659.16
2022-12-15T15:26:26.426Z,100647.97
2022-12-15T15:28:54.055Z,100651.75
2022-12-15T15:31:38.345Z,100649.94
2022-12-15T15:34:07.423Z,100644.00
2022-12-15T15:36:37.077Z,100647.97
2022-12-15T15:39:11.519Z,100645.59
2022-12-15T15:41:38.630Z,100642.91
2022-12-15T15:44:12.320Z,100642.53
2022-12-15T15:46:47.064Z,100642.03
2022-12-15T15:49:21.940Z,100639.00
2022-12-15T15:51:51.146Z,100642.22
2022-12-15T15:54:22.766Z,100647.19
2022-12-15T15:56:49.732Z,100646.06
2022-12-15T15:59:21.483Z,100646.69
2022-12-15T16:01:59.179Z,100657.34
2022-12-15T16:04:26.340Z,100648.63
2022-12-15T16:06:53.245Z,100650.41
2022-12-15T16:09:20.383Z,100641.56
2022-12-15T16:11:47.503Z,100643.88
2022-12-15T16:14:16.357Z,100658.09
2022-12-15T16:16:43.413Z,100653.38
2022-12-15T16:19:11.981Z,100656.38
2022-12-15T16:21:40.728Z,100663.56
2022-12-15T16:24:16.399Z,100666.03
2022-12-15T16:26:50.159Z,100673.53
2022-12-15T16:29:18.984Z,100674.38
2022-12-15T16:31:46.476Z,100674.38
2022-12-15T16:34:16.338Z,100668.19
2022-12-15T16:36:43.770Z,100676.69
2022-12-15T16:39:24.261Z,100677.22
2022-12-15T16:41:53.872Z,100676.66
2022-12-15T16:44:20.644Z,100676.03
2022-12-15T16:46:47.296Z,100663.34
2022-12-15T16:49:13.904Z,100672.16
2022-12-15T16:51:43.783Z,100666.84
2022-12-15T16:54:18.162Z,100678.84
2022-12-15T16:56:44.979Z,100679.34
2022-12-15T16:59:36.289Z,100678.31
2022-12-15T17:02:29.472Z,100678.44
2022-12-15T17:04:56.682Z,100678.72
2022-12-15T17:07:26.303Z,100677.81
2022-12-15T17:09:53.021Z,100687.38
2022-12-15T17:12:20.078Z,100684.28
2022-12-15T17:14:46.930Z,100691.25
2022-12-15T17:17:16.233Z,100692.38
2022-12-15T17:20:19.758Z,100689.53
2022-12-15T17:22:34.566Z,100694.31
2022-12-15T17:25:01.135Z,100697.38
2022-12-15T17:27:30.155Z,100695.84
2022-12-15T17:29:59.533Z,100700.66
2022-12-15T17:32:26.841Z,100699.97
2022-12-15T17:34:53.460Z,100706.69
2022-12-15T17:37:20.185Z,100709.25
2022-12-15T17:39:51.096Z,100705.59
2022-12-15T17:42:21.148Z,100710.69
2022-12-15T17:44:49.127Z,100708.19
2022-12-15T17:47:18.676Z,100712.28
2022-12-15T17:49:48.906Z,100707.59
2022-12-15T17:52:31.437Z,100713.25
2022-12-15T17:55:00.333Z,100714.16
2022-12-15T17:57:27.376Z,100720.00
2022-12-15T17:59:54.033Z,100729.63
2022-12-15T18:02:22.234Z,100723.53
2022-12-15T18:04:50.283Z,100730.28
2022-12-15T18:07:22.702Z,100736.78
2022-12-15T18:09:53.401Z,100733.06
2022-12-15T18:12:23.238Z,100729.34
2022-12-15T18:14:50.605Z,100735.19
2022-12-15T18:17:17.507Z,100738.28
2022-12-15T18:19:44.094Z,100740.50
2022-12-15T18:22:22.456Z,100736.75
2022-12-15T18:24:51.558Z,100745.97
2022-12-15T18:27:28.125Z,100745.81
2022-12-15T18:29:56.578Z,100746.38
2022-12-15T18:32:33.474Z,100748.28
2022-12-15T18:35:01.855Z,100748.41
2022-12-15T18:37:29.835Z,100749.31
2022-12-15T18:40:02.592Z,100756.34
2022-12-15T18:42:31.531Z,100762.19
2022-12-15T18:45:00.333Z,100760.94
2022-12-15T18:47:27.788Z,100765.22
2022-12-15T18:49:54.454Z,100774.91
2022-12-15T18:52:31.526Z,100770.34
2022-12-15T18:55:01.339Z,100766.50
2022-12-15T18:57:38.062Z,100762.69
2022-12-15T19:00:10.833Z,100760.59
2022-12-15T19:02:37.527Z,100762.31
2022-12-15T19:05:04.948Z,100767.41
2022-12-15T19:07:32.424Z,100756.81
2022-12-15T19:10:00.817Z,100754.25
2022-12-15T19:12:28.175Z,100757.50
2022-12-15T19:14:55.485Z,100758.47
2022-12-15T19:17:43.126Z,100774.16
2022-12-15T19:20:37.542Z,100775.06
2022-12-15T19:23:05.645Z,100769.59
2022-12-15T19:25:32.881Z,100774.41
2022-12-15T19:28:00.434Z,100771.41
2022-12-15T19:30:39.923Z,100775.38
2022-12-15T19:33:14.776Z,100780.09
2022-12-15T19:35:44.898Z,100778.41
2022-12-15T19:38:25.643Z,100774.03
2022-12-15T19:40:53.634Z,100768.81
2022-12-15T19:43:21.700Z,100769.56
2022-12-15T19:45:49.741Z,100767.72
2022-12-15T19:48:21.628Z,100768.00
2022-12-15T19:50:51.932Z,100760.81
2022-12-15T19:53:30.940Z,100767.91
2022-12-15T19:56:00.124Z,100769.03
2022-12-15T19:58:32.250Z,100777.59
2022-12-15T20:01:08.905Z,100776.94
2022-12-15T20:03:36.227Z,100782.66
2022-12-15T20:06:04.324Z,100783.31
2022-12-15T20:08:37.002Z,100774.53
2022-12-15T20:11:04.044Z,100771.78
2022-12-15T20:13:31.032Z,100772.31
2022-12-15T20:15:58.204Z,100769.44
2022-12-15T20:18:24.747Z,100769.66
2022-12-15T20:20:51.369Z,100767.63
2022-12-15T20:23:22.007Z,100762.50
2022-12-15T20:25:51.456Z,100762.13
2022-12-15T20:28:24.660Z,100761.09
2022-12-15T20:30:53.864Z,100754.75
2022-12-15T20:33:20.582Z,100746.53
2022-12-15T20:35:49.786Z,100740.19
2022-12-15T20:38:21.500Z,100741.75
2022-12-15T20:40:50.810Z,100743.28
2022-12-15T20:43:22.297Z,100748.19
2022-12-15T20:45:58.137Z,100745.03
2022-12-15T20:48:26.621Z,100754.03
2022-12-15T20:50:53.287Z,100758.97
2022-12-15T20:53:25.891Z,100766.16
2022-12-15T20:55:54.401Z,100773.19
2022-12-15T20:58:21.465Z,100783.56
2022-12-15T21:00:49.977Z,100785.19
2022-12-15T21:03:31.442Z,100789.09
2022-12-15T21:05:59.349Z,100781.63
2022-12-15T21:08:29.670Z,100772.19
2022-12-15T21:11:20.696Z,100771.75
2022-12-15T21:13:52.480Z,100772.56
2022-12-15T21:16:28.062Z,100761.72
2022-12-15T21:19:19.318Z,100762.78
2022-12-15T21:21:55.128Z,100756.00
2022-12-15T21:24:24.880Z,100749.44
2022-12-15T21:26:52.396Z,100749.44
2022-12-15T21:29:22.168Z,100748.81
2022-12-15T21:31:51.678Z,100740.94
2022-12-15T21:34:20.314Z,100743.50
2022-12-15T21:36:51.751Z,100740.00
2022-12-15T21:39:25.748Z,100738.09
2022-12-15T21:41:52.362Z,100744.66
2022-12-15T21:44:21.812Z,100738.47
2022-12-15T21:46:48.525Z,100743.88
2022-12-15T21:49:18.815Z,100742.56
2022-12-15T21:51:55.458Z,100738.84
2022-12-15T21:54:28.827Z,100748.41
2022-12-15T21:56:58.092Z,100743.97
2022-12-15T21:59:27.740Z,100754.56
2022-12-15T22:01:55.429Z,100755.13
2022-12-15T22:04:32.384Z,100753.38
2022-12-15T22:06:59.527Z,100749.09
2022-12-15T22:09:26.421Z,100746.13
2022-12-15T22:11:56.311Z,100735.75
2022-12-15T22:14:26.215Z,100754.25
2022-12-15T22:16:53.533Z,100744.97
2022-12-15T22:19:23.557Z,100744.03
2022-12-15T22:21:53.043Z,100744.84
2022-12-15T22:24:20.969Z,100744.38
2022-12-15T22:26:47.757Z,100751.09
2022-12-15T22:29:22.416Z,100751.13
2022-12-15T22:31:51.797Z,100753.47
2022-12-15T22:34:21.700Z,100755.06
2022-12-15T22:36:49.146Z,100749.41
2022-12-15T22:39:22.019Z,100753.38
2022-12-15T22:41:51.555Z,100753.28
2022-12-15T22:44:27.675Z,100754.28
2022-12-15T22:46:56.949Z,100743.50
2022-12-15T22:49:34.354Z,100745.88
2022-12-15T22:52:03.278Z,100741.94
2022-12-15T22:54:32.235Z,100748.69
2022-12-15T22:57:05.401Z,100747.47
2022-12-15T22:59:43.564Z,100751.16
2022-12-15T23:02:11.226Z,100752.28
2022-12-15T23:04:37.861Z,100754.94
2022-12-15T23:07:07.085Z,100764.06
2022-12-15T23:09:33.912Z,100761.31
2022-12-15T23:12:00.547Z,100759.75
2022-12-15T23:14:45.842Z,100773.97
2022-12-15T23:17:13.577Z,100773.63
2022-12-15T23:19:44.754Z,100774.91
2022-12-15T23:22:11.550Z,100775.78
2022-12-15T23:24:38.994Z,100768.41
2022-12-15T23:27:10.551Z,100769.66
2022-12-15T23:29:37.626Z,100772.50
2022-12-15T23:32:06.350Z,100777.06
2022-12-15T23:34:33.007Z,100775.53
2022-12-15T23:37:00.068Z,100777.72
2022-12-15T23:39:27.102Z,100779.84
2022-12-15T23:41:53.608Z,100780.00
2022-12-15T23:44:22.508Z,100782.72
2022-12-15T23:46:49.089Z,100778.53
2022-12-15T23:49:15.798Z,100785.31
2022-12-15T23:51:42.622Z,100778.53
2022-12-15T23:54:09.988Z,100773.47
2022-12-15T23:56:39.376Z,100775.47
2022-12-15T23:59:06.721Z,100782.75
